sensor_id;sensor_type;location;lat;lon;timestamp;P1;durP1;ratioP1;P2;durP2;ratioP2
24685;SDS011;12804;51.176;4.452;2023-04-24T00:00:55;21.38;;;15.40;;
24685;SDS011;12804;51.176;4.452;2023-04-24T00:03:26;20.92;;;15.98;;
24685;SDS011;12804;51.176;4.452;2023-04-24T00:05:53;21.90;;;16.30;;
24685;SDS011;12804;51.176;4.452;2023-04-24T00:08:19;27.23;;;15.88;;
24685;SDS011;12804;51.176;4.452;2023-04-24T00:10:46;22.20;;;15.02;;
24685;SDS011;12804;51.176;4.452;2023-04-24T00:13:12;25.58;;;15.07;;
24685;SDS011;12804;51.176;4.452;2023-04-24T00:15:37;25.33;;;15.32;;
24685;SDS011;12804;51.176;4.452;2023-04-24T00:18:03;24.35;;;16.02;;
24685;SDS011;12804;51.176;4.452;2023-04-24T00:20:29;24.98;;;16.00;;
24685;SDS011;12804;51.176;4.452;2023-04-24T00:22:57;23.75;;;16.52;;
24685;SDS011;12804;51.176;4.452;2023-04-24T00:25:23;26.65;;;16.25;;
24685;SDS011;12804;51.176;4.452;2023-04-24T00:27:49;29.50;;;17.10;;
24685;SDS011;12804;51.176;4.452;2023-04-24T00:30:15;26.02;;;16.98;;
24685;SDS011;12804;51.176;4.452;2023-04-24T00:32:41;26.92;;;18.27;;
24685;SDS011;12804;51.176;4.452;2023-04-24T00:35:07;27.05;;;18.35;;
24685;SDS011;12804;51.176;4.452;2023-04-24T00:37:33;25.75;;;17.73;;
24685;SDS011;12804;51.176;4.452;2023-04-24T00:39:59;27.70;;;18.98;;
24685;SDS011;12804;51.176;4.452;2023-04-24T00:42:25;22.05;;;16.95;;
24685;SDS011;12804;51.176;4.452;2023-04-24T00:44:51;25.15;;;17.55;;
24685;SDS011;12804;51.176;4.452;2023-04-24T00:47:19;26.25;;;18.25;;
24685;SDS011;12804;51.176;4.452;2023-04-24T00:49:45;23.55;;;17.67;;
24685;SDS011;12804;51.176;4.452;2023-04-24T00:52:11;26.20;;;16.90;;
24685;SDS011;12804;51.176;4.452;2023-04-24T00:54:37;24.60;;;17.00;;
24685;SDS011;12804;51.176;4.452;2023-04-24T00:57:03;26.15;;;17.17;;
24685;SDS011;12804;51.176;4.452;2023-04-24T00:59:29;22.30;;;16.65;;
24685;SDS011;12804;51.176;4.452;2023-04-24T01:01:56;21.48;;;16.95;;
24685;SDS011;12804;51.176;4.452;2023-04-24T01:04:22;22.13;;;16.42;;
24685;SDS011;12804;51.176;4.452;2023-04-24T01:06:48;25.83;;;17.15;;
24685;SDS011;12804;51.176;4.452;2023-04-24T01:09:15;22.63;;;16.73;;
24685;SDS011;12804;51.176;4.452;2023-04-24T01:11:42;23.95;;;16.67;;
24685;SDS011;12804;51.176;4.452;2023-04-24T01:14:08;21.73;;;16.13;;
24685;SDS011;12804;51.176;4.452;2023-04-24T01:16:35;21.25;;;16.52;;
24685;SDS011;12804;51.176;4.452;2023-04-24T01:19:03;22.55;;;16.42;;
24685;SDS011;12804;51.176;4.452;2023-04-24T01:21:31;24.17;;;17.10;;
24685;SDS011;12804;51.176;4.452;2023-04-24T01:24:02;20.58;;;16.50;;
24685;SDS011;12804;51.176;4.452;2023-04-24T01:26:29;22.25;;;16.80;;
24685;SDS011;12804;51.176;4.452;2023-04-24T01:28:55;22.88;;;15.07;;
24685;SDS011;12804;51.176;4.452;2023-04-24T01:31:21;20.70;;;15.23;;
24685;SDS011;12804;51.176;4.452;2023-04-24T01:33:47;21.23;;;15.73;;
24685;SDS011;12804;51.176;4.452;2023-04-24T01:36:14;18.17;;;15.15;;
24685;SDS011;12804;51.176;4.452;2023-04-24T01:38:42;17.52;;;12.93;;
24685;SDS011;12804;51.176;4.452;2023-04-24T01:41:09;17.98;;;12.63;;
24685;SDS011;12804;51.176;4.452;2023-04-24T01:43:35;14.38;;;11.02;;
24685;SDS011;12804;51.176;4.452;2023-04-24T01:46:01;18.13;;;11.52;;
24685;SDS011;12804;51.176;4.452;2023-04-24T01:48:27;16.38;;;11.23;;
24685;SDS011;12804;51.176;4.452;2023-04-24T01:50:53;14.43;;;10.90;;
24685;SDS011;12804;51.176;4.452;2023-04-24T01:53:19;13.45;;;10.20;;
24685;SDS011;12804;51.176;4.452;2023-04-24T01:55:45;14.60;;;9.88;;
24685;SDS011;12804;51.176;4.452;2023-04-24T01:58:12;14.77;;;11.15;;
24685;SDS011;12804;51.176;4.452;2023-04-24T02:00:38;14.60;;;11.35;;
24685;SDS011;12804;51.176;4.452;2023-04-24T02:03:04;14.40;;;10.88;;
24685;SDS011;12804;51.176;4.452;2023-04-24T02:05:29;16.38;;;11.10;;
24685;SDS011;12804;51.176;4.452;2023-04-24T02:07:55;12.88;;;10.50;;
24685;SDS011;12804;51.176;4.452;2023-04-24T02:10:22;15.48;;;11.13;;
24685;SDS011;12804;51.176;4.452;2023-04-24T02:12:48;16.08;;;10.75;;
24685;SDS011;12804;51.176;4.452;2023-04-24T02:15:14;15.07;;;11.23;;
24685;SDS011;12804;51.176;4.452;2023-04-24T02:17:40;14.90;;;11.20;;
24685;SDS011;12804;51.176;4.452;2023-04-24T02:20:06;17.35;;;11.07;;
24685;SDS011;12804;51.176;4.452;2023-04-24T02:22:32;16.42;;;10.95;;
24685;SDS011;12804;51.176;4.452;2023-04-24T02:25:00;13.80;;;10.75;;
24685;SDS011;12804;51.176;4.452;2023-04-24T02:27:26;19.23;;;11.65;;
24685;SDS011;12804;51.176;4.452;2023-04-24T02:29:52;15.98;;;11.30;;
24685;SDS011;12804;51.176;4.452;2023-04-24T02:32:18;13.95;;;11.40;;
24685;SDS011;12804;51.176;4.452;2023-04-24T02:34:44;13.18;;;11.57;;
24685;SDS011;12804;51.176;4.452;2023-04-24T02:37:11;13.63;;;11.70;;
24685;SDS011;12804;51.176;4.452;2023-04-24T02:39:37;12.93;;;11.48;;
24685;SDS011;12804;51.176;4.452;2023-04-24T02:42:03;13.27;;;11.40;;
24685;SDS011;12804;51.176;4.452;2023-04-24T02:44:29;12.40;;;11.18;;
24685;SDS011;12804;51.176;4.452;2023-04-24T02:46:55;12.35;;;10.18;;
24685;SDS011;12804;51.176;4.452;2023-04-24T02:49:22;12.00;;;10.35;;
24685;SDS011;12804;51.176;4.452;2023-04-24T02:51:47;12.38;;;10.20;;
24685;SDS011;12804;51.176;4.452;2023-04-24T02:54:13;16.80;;;10.15;;
24685;SDS011;12804;51.176;4.452;2023-04-24T02:56:39;12.02;;;10.50;;
24685;SDS011;12804;51.176;4.452;2023-04-24T02:59:07;11.50;;;9.70;;
24685;SDS011;12804;51.176;4.452;2023-04-24T03:01:33;12.88;;;10.57;;
24685;SDS011;12804;51.176;4.452;2023-04-24T03:03:59;12.93;;;10.38;;
24685;SDS011;12804;51.176;4.452;2023-04-24T03:06:25;12.52;;;10.68;;
24685;SDS011;12804;51.176;4.452;2023-04-24T03:08:52;13.77;;;10.18;;
24685;SDS011;12804;51.176;4.452;2023-04-24T03:11:18;14.82;;;10.43;;
24685;SDS011;12804;51.176;4.452;2023-04-24T03:13:44;13.93;;;11.07;;
24685;SDS011;12804;51.176;4.452;2023-04-24T03:16:10;13.25;;;10.88;;
24685;SDS011;12804;51.176;4.452;2023-04-24T03:18:36;14.45;;;11.52;;
24685;SDS011;12804;51.176;4.452;2023-04-24T03:21:03;15.63;;;11.93;;
24685;SDS011;12804;51.176;4.452;2023-04-24T03:23:29;14.65;;;12.57;;
24685;SDS011;12804;51.176;4.452;2023-04-24T03:25:56;14.63;;;12.73;;
24685;SDS011;12804;51.176;4.452;2023-04-24T03:28:21;15.88;;;13.05;;
24685;SDS011;12804;51.176;4.452;2023-04-24T03:30:56;18.50;;;13.38;;
24685;SDS011;12804;51.176;4.452;2023-04-24T03:33:23;20.48;;;14.48;;
24685;SDS011;12804;51.176;4.452;2023-04-24T03:35:59;17.15;;;14.13;;
24685;SDS011;12804;51.176;4.452;2023-04-24T03:38:30;18.88;;;14.77;;
24685;SDS011;12804;51.176;4.452;2023-04-24T03:41:17;16.65;;;13.63;;
24685;SDS011;12804;51.176;4.452;2023-04-24T03:43:49;15.82;;;13.07;;
24685;SDS011;12804;51.176;4.452;2023-04-24T03:46:15;17.00;;;13.32;;
24685;SDS011;12804;51.176;4.452;2023-04-24T03:48:46;15.97;;;12.27;;
24685;SDS011;12804;51.176;4.452;2023-04-24T03:51:14;18.35;;;12.10;;
24685;SDS011;12804;51.176;4.452;2023-04-24T03:53:43;15.95;;;10.52;;
24685;SDS011;12804;51.176;4.452;2023-04-24T03:56:11;16.13;;;10.43;;
24685;SDS011;12804;51.176;4.452;2023-04-24T03:58:37;13.23;;;8.60;;
24685;SDS011;12804;51.176;4.452;2023-04-24T04:01:03;11.98;;;8.35;;
24685;SDS011;12804;51.176;4.452;2023-04-24T04:03:53;15.52;;;7.85;;
24685;SDS011;12804;51.176;4.452;2023-04-24T04:06:22;11.95;;;8.18;;
24685;SDS011;12804;51.176;4.452;2023-04-24T04:08:50;12.13;;;8.77;;
24685;SDS011;12804;51.176;4.452;2023-04-24T04:11:15;17.48;;;9.48;;
24685;SDS011;12804;51.176;4.452;2023-04-24T04:13:43;15.35;;;10.63;;
24685;SDS011;12804;51.176;4.452;2023-04-24T04:16:10;14.85;;;9.15;;
24685;SDS011;12804;51.176;4.452;2023-04-24T04:18:37;14.57;;;9.43;;
24685;SDS011;12804;51.176;4.452;2023-04-24T04:21:05;17.42;;;11.75;;
24685;SDS011;12804;51.176;4.452;2023-04-24T04:23:31;16.67;;;11.50;;
24685;SDS011;12804;51.176;4.452;2023-04-24T04:26:09;22.05;;;14.27;;
24685;SDS011;12804;51.176;4.452;2023-04-24T04:29:03;18.45;;;13.10;;
24685;SDS011;12804;51.176;4.452;2023-04-24T04:31:30;22.42;;;13.48;;
24685;SDS011;12804;51.176;4.452;2023-04-24T04:33:59;16.13;;;11.07;;
24685;SDS011;12804;51.176;4.452;2023-04-24T04:36:28;18.00;;;11.10;;
24685;SDS011;12804;51.176;4.452;2023-04-24T04:39:01;16.63;;;10.88;;
24685;SDS011;12804;51.176;4.452;2023-04-24T04:41:50;18.83;;;11.43;;
24685;SDS011;12804;51.176;4.452;2023-04-24T04:44:18;17.67;;;12.02;;
24685;SDS011;12804;51.176;4.452;2023-04-24T04:46:44;21.27;;;14.38;;
24685;SDS011;12804;51.176;4.452;2023-04-24T04:49:22;30.80;;;18.77;;
24685;SDS011;12804;51.176;4.452;2023-04-24T04:51:49;31.95;;;18.80;;
24685;SDS011;12804;51.176;4.452;2023-04-24T04:54:16;26.63;;;16.15;;
24685;SDS011;12804;51.176;4.452;2023-04-24T04:56:42;24.02;;;15.45;;
24685;SDS011;12804;51.176;4.452;2023-04-24T04:59:08;26.33;;;16.45;;
24685;SDS011;12804;51.176;4.452;2023-04-24T05:01:36;26.15;;;16.00;;
24685;SDS011;12804;51.176;4.452;2023-04-24T05:04:04;28.65;;;16.40;;
24685;SDS011;12804;51.176;4.452;2023-04-24T05:06:31;26.27;;;15.70;;
24685;SDS011;12804;51.176;4.452;2023-04-24T05:08:57;30.90;;;16.30;;
24685;SDS011;12804;51.176;4.452;2023-04-24T05:11:49;26.30;;;15.43;;
24685;SDS011;12804;51.176;4.452;2023-04-24T05:14:16;32.95;;;15.45;;
24685;SDS011;12804;51.176;4.452;2023-04-24T05:16:43;24.38;;;14.55;;
24685;SDS011;12804;51.176;4.452;2023-04-24T05:19:10;25.08;;;15.23;;
24685;SDS011;12804;51.176;4.452;2023-04-24T05:21:39;25.50;;;14.48;;
24685;SDS011;12804;51.176;4.452;2023-04-24T05:24:07;24.85;;;12.88;;
24685;SDS011;12804;51.176;4.452;2023-04-24T05:26:57;29.10;;;15.68;;
24685;SDS011;12804;51.176;4.452;2023-04-24T05:29:29;23.98;;;13.35;;
24685;SDS011;12804;51.176;4.452;2023-04-24T05:31:56;17.38;;;11.00;;
24685;SDS011;12804;51.176;4.452;2023-04-24T05:34:24;16.40;;;10.35;;
24685;SDS011;12804;51.176;4.452;2023-04-24T05:36:53;14.85;;;9.45;;
24685;SDS011;12804;51.176;4.452;2023-04-24T05:39:19;18.98;;;10.00;;
24685;SDS011;12804;51.176;4.452;2023-04-24T05:41:45;18.70;;;9.63;;
24685;SDS011;12804;51.176;4.452;2023-04-24T05:44:11;17.88;;;10.13;;
24685;SDS011;12804;51.176;4.452;2023-04-24T05:46:37;16.10;;;9.90;;
24685;SDS011;12804;51.176;4.452;2023-04-24T05:49:03;17.83;;;10.02;;
24685;SDS011;12804;51.176;4.452;2023-04-24T05:51:30;17.02;;;9.88;;
24685;SDS011;12804;51.176;4.452;2023-04-24T05:53:57;17.10;;;10.80;;
24685;SDS011;12804;51.176;4.452;2023-04-24T05:56:24;20.65;;;11.45;;
24685;SDS011;12804;51.176;4.452;2023-04-24T05:58:50;19.50;;;11.45;;
24685;SDS011;12804;51.176;4.452;2023-04-24T06:01:16;20.63;;;12.52;;
24685;SDS011;12804;51.176;4.452;2023-04-24T06:03:45;21.92;;;12.50;;
24685;SDS011;12804;51.176;4.452;2023-04-24T06:06:10;27.08;;;13.40;;
24685;SDS011;12804;51.176;4.452;2023-04-24T06:08:36;26.35;;;14.38;;
24685;SDS011;12804;51.176;4.452;2023-04-24T06:11:02;24.23;;;15.15;;
24685;SDS011;12804;51.176;4.452;2023-04-24T06:13:28;27.70;;;16.33;;
24685;SDS011;12804;51.176;4.452;2023-04-24T06:16:14;32.33;;;18.58;;
24685;SDS011;12804;51.176;4.452;2023-04-24T06:18:44;43.97;;;22.50;;
24685;SDS011;12804;51.176;4.452;2023-04-24T06:21:12;46.22;;;24.77;;
24685;SDS011;12804;51.176;4.452;2023-04-24T06:23:38;42.95;;;24.20;;
24685;SDS011;12804;51.176;4.452;2023-04-24T06:26:04;38.08;;;22.58;;
24685;SDS011;12804;51.176;4.452;2023-04-24T06:28:30;42.28;;;19.85;;
24685;SDS011;12804;51.176;4.452;2023-04-24T06:30:57;26.40;;;16.55;;
24685;SDS011;12804;51.176;4.452;2023-04-24T06:33:23;31.70;;;19.88;;
24685;SDS011;12804;51.176;4.452;2023-04-24T06:35:48;34.20;;;19.60;;
24685;SDS011;12804;51.176;4.452;2023-04-24T06:38:14;31.98;;;18.75;;
24685;SDS011;12804;51.176;4.452;2023-04-24T06:40:41;37.58;;;20.70;;
24685;SDS011;12804;51.176;4.452;2023-04-24T06:43:07;40.28;;;23.55;;
24685;SDS011;12804;51.176;4.452;2023-04-24T06:45:33;36.75;;;22.15;;
24685;SDS011;12804;51.176;4.452;2023-04-24T06:47:59;34.08;;;20.58;;
24685;SDS011;12804;51.176;4.452;2023-04-24T06:50:25;34.13;;;19.63;;
24685;SDS011;12804;51.176;4.452;2023-04-24T06:52:50;35.47;;;18.58;;
24685;SDS011;12804;51.176;4.452;2023-04-24T06:55:16;31.88;;;19.38;;
24685;SDS011;12804;51.176;4.452;2023-04-24T06:57:42;37.10;;;19.30;;
24685;SDS011;12804;51.176;4.452;2023-04-24T07:00:09;32.90;;;17.20;;
24685;SDS011;12804;51.176;4.452;2023-04-24T07:02:35;33.38;;;18.02;;
24685;SDS011;12804;51.176;4.452;2023-04-24T07:05:02;32.05;;;15.85;;
24685;SDS011;12804;51.176;4.452;2023-04-24T07:07:29;28.95;;;14.48;;
24685;SDS011;12804;51.176;4.452;2023-04-24T07:09:55;20.65;;;10.75;;
24685;SDS011;12804;51.176;4.452;2023-04-24T07:12:22;22.42;;;9.48;;
24685;SDS011;12804;51.176;4.452;2023-04-24T07:14:49;18.60;;;8.20;;
24685;SDS011;12804;51.176;4.452;2023-04-24T07:17:15;18.85;;;7.85;;
24685;SDS011;12804;51.176;4.452;2023-04-24T07:19:41;17.33;;;7.40;;
24685;SDS011;12804;51.176;4.452;2023-04-24T07:22:07;17.80;;;7.32;;
24685;SDS011;12804;51.176;4.452;2023-04-24T07:24:33;20.75;;;7.85;;
24685;SDS011;12804;51.176;4.452;2023-04-24T07:26:59;20.00;;;7.32;;
24685;SDS011;12804;51.176;4.452;2023-04-24T07:29:28;15.07;;;6.80;;
24685;SDS011;12804;51.176;4.452;2023-04-24T07:31:54;17.85;;;7.10;;
24685;SDS011;12804;51.176;4.452;2023-04-24T07:34:20;13.57;;;6.10;;
24685;SDS011;12804;51.176;4.452;2023-04-24T07:36:45;13.30;;;6.03;;
24685;SDS011;12804;51.176;4.452;2023-04-24T07:39:12;18.15;;;6.20;;
24685;SDS011;12804;51.176;4.452;2023-04-24T07:41:38;14.50;;;5.35;;
24685;SDS011;12804;51.176;4.452;2023-04-24T07:44:04;12.25;;;4.45;;
24685;SDS011;12804;51.176;4.452;2023-04-24T07:46:30;12.38;;;4.65;;
24685;SDS011;12804;51.176;4.452;2023-04-24T07:48:56;9.90;;;4.55;;
24685;SDS011;12804;51.176;4.452;2023-04-24T07:51:22;14.90;;;4.47;;
24685;SDS011;12804;51.176;4.452;2023-04-24T07:53:47;14.60;;;4.60;;
24685;SDS011;12804;51.176;4.452;2023-04-24T07:56:13;8.15;;;3.85;;
24685;SDS011;12804;51.176;4.452;2023-04-24T07:58:39;14.07;;;4.05;;
24685;SDS011;12804;51.176;4.452;2023-04-24T08:01:05;13.80;;;3.95;;
24685;SDS011;12804;51.176;4.452;2023-04-24T08:03:31;13.18;;;3.90;;
24685;SDS011;12804;51.176;4.452;2023-04-24T08:05:57;18.98;;;4.88;;
24685;SDS011;12804;51.176;4.452;2023-04-24T08:08:24;12.18;;;3.65;;
24685;SDS011;12804;51.176;4.452;2023-04-24T08:10:50;13.80;;;4.10;;
24685;SDS011;12804;51.176;4.452;2023-04-24T08:13:16;14.35;;;3.63;;
24685;SDS011;12804;51.176;4.452;2023-04-24T08:15:42;11.40;;;3.95;;
24685;SDS011;12804;51.176;4.452;2023-04-24T08:18:08;17.65;;;4.63;;
24685;SDS011;12804;51.176;4.452;2023-04-24T08:20:36;14.68;;;5.32;;
24685;SDS011;12804;51.176;4.452;2023-04-24T08:23:02;25.10;;;6.22;;
24685;SDS011;12804;51.176;4.452;2023-04-24T08:25:28;19.33;;;7.15;;
24685;SDS011;12804;51.176;4.452;2023-04-24T08:27:54;18.63;;;6.68;;
24685;SDS011;12804;51.176;4.452;2023-04-24T08:30:20;15.82;;;7.28;;
24685;SDS011;12804;51.176;4.452;2023-04-24T08:32:46;19.75;;;7.63;;
24685;SDS011;12804;51.176;4.452;2023-04-24T08:35:12;25.63;;;8.52;;
24685;SDS011;12804;51.176;4.452;2023-04-24T08:37:38;19.98;;;7.70;;
24685;SDS011;12804;51.176;4.452;2023-04-24T08:40:05;16.83;;;6.90;;
24685;SDS011;12804;51.176;4.452;2023-04-24T08:42:39;12.73;;;6.10;;
24685;SDS011;12804;51.176;4.452;2023-04-24T08:45:07;18.05;;;6.40;;
24685;SDS011;12804;51.176;4.452;2023-04-24T08:47:33;12.90;;;5.07;;
24685;SDS011;12804;51.176;4.452;2023-04-24T08:50:02;15.75;;;4.55;;
24685;SDS011;12804;51.176;4.452;2023-04-24T08:52:28;11.98;;;4.15;;
24685;SDS011;12804;51.176;4.452;2023-04-24T08:54:55;12.98;;;4.65;;
24685;SDS011;12804;51.176;4.452;2023-04-24T08:57:22;16.48;;;3.92;;
24685;SDS011;12804;51.176;4.452;2023-04-24T08:59:48;11.48;;;4.13;;
24685;SDS011;12804;51.176;4.452;2023-04-24T09:02:14;15.10;;;3.92;;
24685;SDS011;12804;51.176;4.452;2023-04-24T09:04:41;13.30;;;3.92;;
24685;SDS011;12804;51.176;4.452;2023-04-24T09:07:09;12.70;;;3.88;;
24685;SDS011;12804;51.176;4.452;2023-04-24T09:09:37;9.68;;;3.10;;
24685;SDS011;12804;51.176;4.452;2023-04-24T09:12:04;13.20;;;3.78;;
24685;SDS011;12804;51.176;4.452;2023-04-24T09:14:30;12.25;;;4.03;;
24685;SDS011;12804;51.176;4.452;2023-04-24T09:16:57;12.38;;;4.05;;
24685;SDS011;12804;51.176;4.452;2023-04-24T09:19:23;18.75;;;4.70;;
24685;SDS011;12804;51.176;4.452;2023-04-24T09:21:48;17.50;;;5.22;;
24685;SDS011;12804;51.176;4.452;2023-04-24T09:24:19;12.02;;;4.65;;
24685;SDS011;12804;51.176;4.452;2023-04-24T09:26:48;14.35;;;5.38;;
24685;SDS011;12804;51.176;4.452;2023-04-24T09:29:23;14.43;;;5.10;;
24685;SDS011;12804;51.176;4.452;2023-04-24T09:31:49;11.60;;;4.63;;
24685;SDS011;12804;51.176;4.452;2023-04-24T09:34:18;12.48;;;4.45;;
24685;SDS011;12804;51.176;4.452;2023-04-24T09:36:48;18.60;;;4.45;;
24685;SDS011;12804;51.176;4.452;2023-04-24T09:39:14;14.55;;;4.07;;
24685;SDS011;12804;51.176;4.452;2023-04-24T09:41:44;14.27;;;3.88;;
24685;SDS011;12804;51.176;4.452;2023-04-24T09:44:12;11.25;;;3.90;;
24685;SDS011;12804;51.176;4.452;2023-04-24T09:46:44;12.13;;;3.40;;
24685;SDS011;12804;51.176;4.452;2023-04-24T09:49:15;12.13;;;3.33;;
24685;SDS011;12804;51.176;4.452;2023-04-24T09:51:45;10.73;;;3.78;;
24685;SDS011;12804;51.176;4.452;2023-04-24T09:54:17;13.07;;;3.75;;
24685;SDS011;12804;51.176;4.452;2023-04-24T09:56:46;8.15;;;3.53;;
24685;SDS011;12804;51.176;4.452;2023-04-24T09:59:17;9.85;;;4.07;;
24685;SDS011;12804;51.176;4.452;2023-04-24T10:01:44;11.27;;;3.80;;
24685;SDS011;12804;51.176;4.452;2023-04-24T10:06:47;7.25;;;2.60;;
24685;SDS011;12804;51.176;4.452;2023-04-24T10:09:14;3.88;;;2.28;;
24685;SDS011;12804;51.176;4.452;2023-04-24T10:11:45;5.20;;;2.40;;
24685;SDS011;12804;51.176;4.452;2023-04-24T10:14:14;2.42;;;1.30;;
24685;SDS011;12804;51.176;4.452;2023-04-24T10:16:43;4.07;;;1.45;;
24685;SDS011;12804;51.176;4.452;2023-04-24T10:19:12;3.90;;;1.70;;
24685;SDS011;12804;51.176;4.452;2023-04-24T10:21:38;2.85;;;1.40;;
24685;SDS011;12804;51.176;4.452;2023-04-24T10:24:10;5.15;;;1.48;;
24685;SDS011;12804;51.176;4.452;2023-04-24T10:26:38;4.32;;;1.80;;
24685;SDS011;12804;51.176;4.452;2023-04-24T10:29:05;3.25;;;1.50;;
24685;SDS011;12804;51.176;4.452;2023-04-24T10:31:36;4.82;;;1.75;;
24685;SDS011;12804;51.176;4.452;2023-04-24T10:34:02;4.35;;;1.77;;
24685;SDS011;12804;51.176;4.452;2023-04-24T10:36:30;6.55;;;1.83;;
24685;SDS011;12804;51.176;4.452;2023-04-24T10:38:59;2.85;;;1.67;;
24685;SDS011;12804;51.176;4.452;2023-04-24T10:41:27;6.03;;;1.60;;
24685;SDS011;12804;51.176;4.452;2023-04-24T10:44:06;3.67;;;1.60;;
24685;SDS011;12804;51.176;4.452;2023-04-24T10:46:33;7.43;;;1.77;;
24685;SDS011;12804;51.176;4.452;2023-04-24T10:48:59;6.80;;;1.88;;
24685;SDS011;12804;51.176;4.452;2023-04-24T10:59:48;5.18;;;2.15;;
24685;SDS011;12804;51.176;4.452;2023-04-24T11:02:15;6.63;;;2.35;;
24685;SDS011;12804;51.176;4.452;2023-04-24T11:04:42;5.43;;;2.10;;
24685;SDS011;12804;51.176;4.452;2023-04-24T11:07:09;4.43;;;2.10;;
24685;SDS011;12804;51.176;4.452;2023-04-24T11:09:36;5.63;;;1.73;;
24685;SDS011;12804;51.176;4.452;2023-04-24T11:12:03;3.63;;;1.40;;
24685;SDS011;12804;51.176;4.452;2023-04-24T11:14:59;3.10;;;1.35;;
24685;SDS011;12804;51.176;4.452;2023-04-24T11:17:28;3.25;;;1.40;;
24685;SDS011;12804;51.176;4.452;2023-04-24T11:20:29;3.70;;;1.05;;
24685;SDS011;12804;51.176;4.452;2023-04-24T11:22:48;2.42;;;1.20;;
24685;SDS011;12804;51.176;4.452;2023-04-24T11:25:22;2.22;;;1.10;;
24685;SDS011;12804;51.176;4.452;2023-04-24T11:27:50;4.80;;;1.20;;
24685;SDS011;12804;51.176;4.452;2023-04-24T11:30:28;4.75;;;1.20;;
24685;SDS011;12804;51.176;4.452;2023-04-24T11:32:55;2.40;;;0.90;;
24685;SDS011;12804;51.176;4.452;2023-04-24T11:35:30;3.50;;;1.10;;
24685;SDS011;12804;51.176;4.452;2023-04-24T11:38:02;2.25;;;1.10;;
24685;SDS011;12804;51.176;4.452;2023-04-24T11:40:28;5.28;;;0.95;;
24685;SDS011;12804;51.176;4.452;2023-04-24T11:42:54;3.40;;;1.13;;
24685;SDS011;12804;51.176;4.452;2023-04-24T11:45:31;2.95;;;1.17;;
24685;SDS011;12804;51.176;4.452;2023-04-24T11:47:57;3.67;;;0.95;;
24685;SDS011;12804;51.176;4.452;2023-04-24T11:50:24;4.93;;;1.38;;
24685;SDS011;12804;51.176;4.452;2023-04-24T11:52:52;4.07;;;1.00;;
24685;SDS011;12804;51.176;4.452;2023-04-24T11:57:44;3.63;;;1.08;;
24685;SDS011;12804;51.176;4.452;2023-04-24T12:00:15;6.50;;;1.50;;
24685;SDS011;12804;51.176;4.452;2023-04-24T12:02:43;3.67;;;1.00;;
24685;SDS011;12804;51.176;4.452;2023-04-24T12:05:19;4.35;;;1.33;;
24685;SDS011;12804;51.176;4.452;2023-04-24T12:07:49;5.47;;;1.25;;
24685;SDS011;12804;51.176;4.452;2023-04-24T12:10:19;6.53;;;1.50;;
24685;SDS011;12804;51.176;4.452;2023-04-24T12:12:47;7.20;;;1.83;;
24685;SDS011;12804;51.176;4.452;2023-04-24T12:15:15;5.00;;;1.40;;
24685;SDS011;12804;51.176;4.452;2023-04-24T12:17:42;4.20;;;1.30;;
24685;SDS011;12804;51.176;4.452;2023-04-24T12:20:08;2.08;;;1.10;;
24685;SDS011;12804;51.176;4.452;2023-04-24T12:22:48;5.43;;;1.33;;
24685;SDS011;12804;51.176;4.452;2023-04-24T12:25:21;6.53;;;1.30;;
24685;SDS011;12804;51.176;4.452;2023-04-24T12:30:30;3.75;;;1.33;;
24685;SDS011;12804;51.176;4.452;2023-04-24T12:32:58;4.55;;;1.63;;
24685;SDS011;12804;51.176;4.452;2023-04-24T12:35:27;5.78;;;1.23;;
24685;SDS011;12804;51.176;4.452;2023-04-24T12:37:54;6.38;;;1.60;;
24685;SDS011;12804;51.176;4.452;2023-04-24T12:40:20;3.67;;;1.13;;
24685;SDS011;12804;51.176;4.452;2023-04-24T12:42:50;7.88;;;1.55;;
24685;SDS011;12804;51.176;4.452;2023-04-24T12:45:17;4.35;;;1.50;;
24685;SDS011;12804;51.176;4.452;2023-04-24T12:47:44;5.25;;;1.38;;
24685;SDS011;12804;51.176;4.452;2023-04-24T12:50:14;4.65;;;1.48;;
24685;SDS011;12804;51.176;4.452;2023-04-24T12:52:41;4.32;;;1.30;;
24685;SDS011;12804;51.176;4.452;2023-04-24T12:55:08;3.67;;;1.13;;
24685;SDS011;12804;51.176;4.452;2023-04-24T12:57:35;2.55;;;1.30;;
24685;SDS011;12804;51.176;4.452;2023-04-24T13:00:02;6.60;;;1.67;;
24685;SDS011;12804;51.176;4.452;2023-04-24T13:02:30;3.35;;;1.42;;
24685;SDS011;12804;51.176;4.452;2023-04-24T13:04:58;4.32;;;1.45;;
24685;SDS011;12804;51.176;4.452;2023-04-24T13:07:24;5.22;;;1.80;;
24685;SDS011;12804;51.176;4.452;2023-04-24T13:09:50;5.25;;;1.35;;
24685;SDS011;12804;51.176;4.452;2023-04-24T13:12:16;6.50;;;1.73;;
24685;SDS011;12804;51.176;4.452;2023-04-24T13:14:42;5.45;;;1.75;;
24685;SDS011;12804;51.176;4.452;2023-04-24T13:17:08;4.18;;;1.63;;
24685;SDS011;12804;51.176;4.452;2023-04-24T13:19:38;2.63;;;1.10;;
24685;SDS011;12804;51.176;4.452;2023-04-24T13:22:09;5.55;;;1.30;;
24685;SDS011;12804;51.176;4.452;2023-04-24T13:24:35;3.00;;;0.88;;
24685;SDS011;12804;51.176;4.452;2023-04-24T13:27:02;2.38;;;1.20;;
24685;SDS011;12804;51.176;4.452;2023-04-24T13:29:28;3.05;;;1.10;;
24685;SDS011;12804;51.176;4.452;2023-04-24T13:31:54;2.92;;;1.00;;
24685;SDS011;12804;51.176;4.452;2023-04-24T13:34:21;2.25;;;0.90;;
24685;SDS011;12804;51.176;4.452;2023-04-24T13:36:49;3.50;;;1.10;;
24685;SDS011;12804;51.176;4.452;2023-04-24T13:39:16;3.70;;;1.00;;
24685;SDS011;12804;51.176;4.452;2023-04-24T13:41:42;2.80;;;1.00;;
24685;SDS011;12804;51.176;4.452;2023-04-24T13:44:08;2.90;;;0.80;;
24685;SDS011;12804;51.176;4.452;2023-04-24T13:46:34;4.05;;;0.80;;
24685;SDS011;12804;51.176;4.452;2023-04-24T13:49:01;1.83;;;0.70;;
24685;SDS011;12804;51.176;4.452;2023-04-24T13:51:28;2.22;;;0.80;;
24685;SDS011;12804;51.176;4.452;2023-04-24T13:53:55;1.77;;;0.82;;
24685;SDS011;12804;51.176;4.452;2023-04-24T13:56:21;2.05;;;0.63;;
24685;SDS011;12804;51.176;4.452;2023-04-24T13:58:47;1.80;;;0.60;;
24685;SDS011;12804;51.176;4.452;2023-04-24T14:01:13;2.75;;;0.65;;
24685;SDS011;12804;51.176;4.452;2023-04-24T14:03:40;2.75;;;0.90;;
24685;SDS011;12804;51.176;4.452;2023-04-24T14:06:08;2.55;;;0.73;;
24685;SDS011;12804;51.176;4.452;2023-04-24T14:08:34;1.17;;;0.57;;
24685;SDS011;12804;51.176;4.452;2023-04-24T14:11:00;2.03;;;0.73;;
24685;SDS011;12804;51.176;4.452;2023-04-24T14:13:26;1.85;;;0.77;;
24685;SDS011;12804;51.176;4.452;2023-04-24T14:15:52;1.77;;;0.70;;
24685;SDS011;12804;51.176;4.452;2023-04-24T14:18:18;2.78;;;0.68;;
24685;SDS011;12804;51.176;4.452;2023-04-24T14:20:44;2.20;;;0.80;;
24685;SDS011;12804;51.176;4.452;2023-04-24T14:23:10;4.10;;;0.98;;
24685;SDS011;12804;51.176;4.452;2023-04-24T14:25:36;2.35;;;0.88;;
24685;SDS011;12804;51.176;4.452;2023-04-24T14:28:02;3.00;;;1.20;;
24685;SDS011;12804;51.176;4.452;2023-04-24T14:30:28;6.72;;;1.08;;
24685;SDS011;12804;51.176;4.452;2023-04-24T14:32:54;1.98;;;1.00;;
24685;SDS011;12804;51.176;4.452;2023-04-24T14:35:19;2.50;;;0.98;;
24685;SDS011;12804;51.176;4.452;2023-04-24T14:37:45;2.70;;;0.90;;
24685;SDS011;12804;51.176;4.452;2023-04-24T14:40:13;3.05;;;1.02;;
24685;SDS011;12804;51.176;4.452;2023-04-24T14:42:39;2.55;;;0.90;;
24685;SDS011;12804;51.176;4.452;2023-04-24T14:45:05;3.35;;;0.73;;
24685;SDS011;12804;51.176;4.452;2023-04-24T14:47:33;3.10;;;1.17;;
24685;SDS011;12804;51.176;4.452;2023-04-24T14:49:58;1.95;;;0.85;;
24685;SDS011;12804;51.176;4.452;2023-04-24T14:52:24;2.70;;;0.90;;